sensor_id;sensor_type;location;lat;lon;timestamp;P1;durP1;ratioP1;P2;durP2;ratioP2
679;SDS011;322;48.846;9.230;2022-09-03T00:00:25;6.83;;;2.53;;
679;SDS011;322;48.846;9.230;2022-09-03T00:02:57;2.53;;;2.33;;
679;SDS011;322;48.846;9.230;2022-09-03T00:05:31;2.77;;;2.50;;
679;SDS011;322;48.846;9.230;2022-09-03T00:08:05;2.77;;;1.70;;
679;SDS011;322;48.846;9.230;2022-09-03T00:10:38;2.47;;;2.27;;
679;SDS011;322;48.846;9.230;2022-09-03T00:13:12;2.90;;;1.80;;
679;SDS011;322;48.846;9.230;2022-09-03T00:15:42;2.20;;;2.00;;
679;SDS011;322;48.846;9.230;2022-09-03T00:18:11;1.97;;;1.77;;
679;SDS011;322;48.846;9.230;2022-09-03T00:20:43;2.77;;;1.90;;
679;SDS011;322;48.846;9.230;2022-09-03T00:23:17;2.97;;;1.67;;
679;SDS011;322;48.846;9.230;2022-09-03T00:25:48;1.80;;;1.70;;
679;SDS011;322;48.846;9.230;2022-09-03T00:28:19;3.00;;;2.17;;
679;SDS011;322;48.846;9.230;2022-09-03T00:31:01;2.00;;;1.90;;
679;SDS011;322;48.846;9.230;2022-09-03T00:33:35;2.17;;;1.97;;
679;SDS011;322;48.846;9.230;2022-09-03T00:36:09;2.30;;;2.10;;
679;SDS011;322;48.846;9.230;2022-09-03T00:38:40;2.10;;;2.00;;
679;SDS011;322;48.846;9.230;2022-09-03T00:41:07;2.20;;;2.00;;
679;SDS011;322;48.846;9.230;2022-09-03T00:43:52;2.77;;;2.13;;
679;SDS011;322;48.846;9.230;2022-09-03T00:46:30;2.10;;;1.90;;
679;SDS011;322;48.846;9.230;2022-09-03T00:49:11;2.57;;;2.00;;
679;SDS011;322;48.846;9.230;2022-09-03T00:51:55;2.33;;;2.10;;
679;SDS011;322;48.846;9.230;2022-09-03T00:54:29;2.30;;;1.83;;
679;SDS011;322;48.846;9.230;2022-09-03T00:57:09;2.63;;;1.90;;
679;SDS011;322;48.846;9.230;2022-09-03T00:59:51;2.50;;;1.87;;
679;SDS011;322;48.846;9.230;2022-09-03T01:02:25;2.17;;;1.97;;
679;SDS011;322;48.846;9.230;2022-09-03T01:05:01;3.23;;;2.43;;
679;SDS011;322;48.846;9.230;2022-09-03T01:07:35;2.10;;;1.80;;
679;SDS011;322;48.846;9.230;2022-09-03T01:10:14;1.70;;;1.60;;
679;SDS011;322;48.846;9.230;2022-09-03T01:12:49;3.27;;;1.80;;
679;SDS011;322;48.846;9.230;2022-09-03T01:15:24;2.60;;;1.73;;
679;SDS011;322;48.846;9.230;2022-09-03T01:18:04;2.30;;;2.10;;
679;SDS011;322;48.846;9.230;2022-09-03T01:20:43;2.30;;;2.10;;
679;SDS011;322;48.846;9.230;2022-09-03T01:26:12;2.70;;;1.90;;
679;SDS011;322;48.846;9.230;2022-09-03T01:28:52;2.67;;;1.97;;
679;SDS011;322;48.846;9.230;2022-09-03T01:31:32;2.13;;;1.97;;
679;SDS011;322;48.846;9.230;2022-09-03T01:34:06;2.20;;;2.07;;
679;SDS011;322;48.846;9.230;2022-09-03T01:36:43;2.30;;;2.10;;
679;SDS011;322;48.846;9.230;2022-09-03T01:39:17;1.90;;;1.60;;
679;SDS011;322;48.846;9.230;2022-09-03T01:41:55;2.77;;;1.93;;
679;SDS011;322;48.846;9.230;2022-09-03T01:44:44;3.30;;;2.60;;
679;SDS011;322;48.846;9.230;2022-09-03T01:47:25;2.43;;;2.23;;
679;SDS011;322;48.846;9.230;2022-09-03T01:49:59;2.53;;;2.00;;
679;SDS011;322;48.846;9.230;2022-09-03T01:52:35;2.30;;;2.10;;
679;SDS011;322;48.846;9.230;2022-09-03T01:55:11;2.70;;;2.50;;
679;SDS011;322;48.846;9.230;2022-09-03T01:57:50;3.40;;;2.50;;
679;SDS011;322;48.846;9.230;2022-09-03T02:00:22;2.33;;;2.13;;
679;SDS011;322;48.846;9.230;2022-09-03T02:02:52;2.43;;;2.23;;
679;SDS011;322;48.846;9.230;2022-09-03T02:05:19;4.43;;;2.23;;
679;SDS011;322;48.846;9.230;2022-09-03T02:07:49;2.70;;;2.43;;
679;SDS011;322;48.846;9.230;2022-09-03T02:10:21;2.90;;;1.97;;
679;SDS011;322;48.846;9.230;2022-09-03T02:12:54;2.70;;;2.10;;
679;SDS011;322;48.846;9.230;2022-09-03T02:15:24;2.17;;;1.97;;
679;SDS011;322;48.846;9.230;2022-09-03T02:17:53;2.40;;;1.70;;
679;SDS011;322;48.846;9.230;2022-09-03T02:20:25;2.10;;;1.90;;
679;SDS011;322;48.846;9.230;2022-09-03T02:22:53;2.40;;;2.03;;
679;SDS011;322;48.846;9.230;2022-09-03T02:25:23;2.63;;;2.10;;
679;SDS011;322;48.846;9.230;2022-09-03T02:27:55;2.37;;;2.17;;
679;SDS011;322;48.846;9.230;2022-09-03T02:30:24;3.00;;;1.97;;
679;SDS011;322;48.846;9.230;2022-09-03T02:32:51;2.40;;;2.20;;
679;SDS011;322;48.846;9.230;2022-09-03T02:35:18;2.50;;;2.30;;
679;SDS011;322;48.846;9.230;2022-09-03T02:37:45;2.33;;;2.13;;
679;SDS011;322;48.846;9.230;2022-09-03T02:40:12;3.10;;;2.00;;
679;SDS011;322;48.846;9.230;2022-09-03T02:42:39;2.30;;;2.10;;
679;SDS011;322;48.846;9.230;2022-09-03T02:45:08;3.00;;;2.30;;
679;SDS011;322;48.846;9.230;2022-09-03T02:47:43;2.40;;;2.20;;
679;SDS011;322;48.846;9.230;2022-09-03T02:50:15;2.50;;;2.30;;
679;SDS011;322;48.846;9.230;2022-09-03T02:52:42;2.10;;;2.00;;
679;SDS011;322;48.846;9.230;2022-09-03T02:55:08;3.90;;;2.03;;
679;SDS011;322;48.846;9.230;2022-09-03T02:57:35;2.53;;;2.33;;
679;SDS011;322;48.846;9.230;2022-09-03T03:00:02;2.70;;;2.50;;
679;SDS011;322;48.846;9.230;2022-09-03T03:02:30;2.33;;;2.13;;
679;SDS011;322;48.846;9.230;2022-09-03T03:04:58;1.90;;;1.80;;
679;SDS011;322;48.846;9.230;2022-09-03T03:07:25;3.93;;;2.27;;
679;SDS011;322;48.846;9.230;2022-09-03T03:09:55;2.33;;;2.13;;
679;SDS011;322;48.846;9.230;2022-09-03T03:12:22;2.77;;;1.87;;
679;SDS011;322;48.846;9.230;2022-09-03T03:14:49;2.37;;;2.17;;
679;SDS011;322;48.846;9.230;2022-09-03T03:17:16;2.50;;;2.30;;
679;SDS011;322;48.846;9.230;2022-09-03T03:19:42;2.37;;;2.17;;
679;SDS011;322;48.846;9.230;2022-09-03T03:22:11;2.37;;;2.27;;
679;SDS011;322;48.846;9.230;2022-09-03T03:24:37;5.10;;;2.00;;
679;SDS011;322;48.846;9.230;2022-09-03T03:27:04;3.30;;;1.93;;
679;SDS011;322;48.846;9.230;2022-09-03T03:29:34;2.07;;;1.80;;
679;SDS011;322;48.846;9.230;2022-09-03T03:32:01;2.03;;;1.63;;
679;SDS011;322;48.846;9.230;2022-09-03T03:34:28;2.13;;;2.03;;
679;SDS011;322;48.846;9.230;2022-09-03T03:36:55;2.90;;;2.20;;
679;SDS011;322;48.846;9.230;2022-09-03T03:39:23;2.33;;;2.13;;
679;SDS011;322;48.846;9.230;2022-09-03T03:41:50;3.07;;;2.27;;
679;SDS011;322;48.846;9.230;2022-09-03T03:44:17;2.20;;;2.00;;
679;SDS011;322;48.846;9.230;2022-09-03T03:46:44;2.77;;;2.40;;
679;SDS011;322;48.846;9.230;2022-09-03T03:49:11;2.50;;;2.30;;
679;SDS011;322;48.846;9.230;2022-09-03T03:51:38;2.77;;;2.13;;
679;SDS011;322;48.846;9.230;2022-09-03T03:54:05;2.33;;;2.13;;
679;SDS011;322;48.846;9.230;2022-09-03T03:56:34;2.63;;;2.43;;
679;SDS011;322;48.846;9.230;2022-09-03T03:59:01;2.30;;;2.10;;
679;SDS011;322;48.846;9.230;2022-09-03T04:01:28;2.57;;;2.03;;
679;SDS011;322;48.846;9.230;2022-09-03T04:03:55;2.70;;;2.20;;
679;SDS011;322;48.846;9.230;2022-09-03T04:06:23;1.90;;;1.80;;
679;SDS011;322;48.846;9.230;2022-09-03T04:08:51;2.57;;;2.37;;
679;SDS011;322;48.846;9.230;2022-09-03T04:11:19;4.50;;;2.30;;
679;SDS011;322;48.846;9.230;2022-09-03T04:13:49;2.70;;;2.50;;
679;SDS011;322;48.846;9.230;2022-09-03T04:16:17;2.10;;;1.90;;
679;SDS011;322;48.846;9.230;2022-09-03T04:18:45;2.37;;;2.23;;
679;SDS011;322;48.846;9.230;2022-09-03T04:21:14;2.23;;;2.03;;
679;SDS011;322;48.846;9.230;2022-09-03T04:23:42;3.80;;;2.30;;
679;SDS011;322;48.846;9.230;2022-09-03T04:26:11;2.40;;;2.20;;
679;SDS011;322;48.846;9.230;2022-09-03T04:28:39;3.47;;;2.43;;
679;SDS011;322;48.846;9.230;2022-09-03T04:31:08;3.33;;;2.27;;
679;SDS011;322;48.846;9.230;2022-09-03T04:33:36;2.50;;;2.30;;
679;SDS011;322;48.846;9.230;2022-09-03T04:36:05;2.10;;;1.90;;
679;SDS011;322;48.846;9.230;2022-09-03T04:38:33;3.57;;;2.30;;
679;SDS011;322;48.846;9.230;2022-09-03T04:41:01;3.00;;;2.80;;
679;SDS011;322;48.846;9.230;2022-09-03T04:43:28;3.40;;;2.17;;
679;SDS011;322;48.846;9.230;2022-09-03T04:45:56;2.33;;;2.10;;
679;SDS011;322;48.846;9.230;2022-09-03T04:48:25;2.53;;;1.77;;
679;SDS011;322;48.846;9.230;2022-09-03T04:50:53;4.13;;;2.50;;
679;SDS011;322;48.846;9.230;2022-09-03T04:53:20;3.03;;;2.13;;
679;SDS011;322;48.846;9.230;2022-09-03T04:55:48;2.40;;;2.20;;
679;SDS011;322;48.846;9.230;2022-09-03T04:58:15;2.60;;;2.40;;
679;SDS011;322;48.846;9.230;2022-09-03T05:00:42;2.47;;;2.33;;
679;SDS011;322;48.846;9.230;2022-09-03T05:03:09;2.63;;;2.43;;
679;SDS011;322;48.846;9.230;2022-09-03T05:05:37;2.43;;;2.23;;
679;SDS011;322;48.846;9.230;2022-09-03T05:08:04;3.47;;;2.47;;
679;SDS011;322;48.846;9.230;2022-09-03T05:10:31;3.27;;;2.40;;
679;SDS011;322;48.846;9.230;2022-09-03T05:12:59;2.20;;;2.00;;
679;SDS011;322;48.846;9.230;2022-09-03T05:15:26;2.63;;;2.43;;
679;SDS011;322;48.846;9.230;2022-09-03T05:17:57;3.13;;;2.60;;
679;SDS011;322;48.846;9.230;2022-09-03T05:20:25;3.17;;;2.83;;
679;SDS011;322;48.846;9.230;2022-09-03T05:22:55;3.40;;;2.70;;
679;SDS011;322;48.846;9.230;2022-09-03T05:25:22;2.93;;;2.73;;
679;SDS011;322;48.846;9.230;2022-09-03T05:27:49;2.60;;;2.40;;
679;SDS011;322;48.846;9.230;2022-09-03T05:30:18;2.17;;;1.80;;
679;SDS011;322;48.846;9.230;2022-09-03T05:32:46;3.17;;;2.60;;
679;SDS011;322;48.846;9.230;2022-09-03T05:35:13;3.07;;;2.87;;
679;SDS011;322;48.846;9.230;2022-09-03T05:37:40;4.03;;;2.63;;
679;SDS011;322;48.846;9.230;2022-09-03T05:40:09;4.20;;;2.50;;
679;SDS011;322;48.846;9.230;2022-09-03T05:42:36;3.77;;;3.00;;
679;SDS011;322;48.846;9.230;2022-09-03T05:45:05;2.60;;;2.40;;
679;SDS011;322;48.846;9.230;2022-09-03T05:47:34;2.63;;;2.43;;
679;SDS011;322;48.846;9.230;2022-09-03T05:50:03;2.50;;;2.30;;
679;SDS011;322;48.846;9.230;2022-09-03T05:52:31;3.23;;;3.03;;
679;SDS011;322;48.846;9.230;2022-09-03T05:54:58;2.50;;;2.30;;
679;SDS011;322;48.846;9.230;2022-09-03T05:57:26;2.97;;;2.67;;
679;SDS011;322;48.846;9.230;2022-09-03T05:59:53;3.97;;;2.63;;
679;SDS011;322;48.846;9.230;2022-09-03T06:02:20;2.80;;;2.60;;
679;SDS011;322;48.846;9.230;2022-09-03T06:04:47;2.83;;;2.40;;
679;SDS011;322;48.846;9.230;2022-09-03T06:07:15;4.03;;;2.60;;
679;SDS011;322;48.846;9.230;2022-09-03T06:09:41;4.53;;;2.80;;
679;SDS011;322;48.846;9.230;2022-09-03T06:12:08;4.73;;;2.73;;
679;SDS011;322;48.846;9.230;2022-09-03T06:14:36;3.30;;;2.33;;
679;SDS011;322;48.846;9.230;2022-09-03T06:17:03;4.20;;;2.50;;
679;SDS011;322;48.846;9.230;2022-09-03T06:19:30;4.03;;;2.43;;
679;SDS011;322;48.846;9.230;2022-09-03T06:21:57;3.90;;;2.60;;
679;SDS011;322;48.846;9.230;2022-09-03T06:24:23;3.60;;;2.67;;
679;SDS011;322;48.846;9.230;2022-09-03T06:26:51;2.70;;;2.50;;
679;SDS011;322;48.846;9.230;2022-09-03T06:29:18;2.93;;;2.63;;
679;SDS011;322;48.846;9.230;2022-09-03T06:31:46;2.60;;;2.40;;
679;SDS011;322;48.846;9.230;2022-09-03T06:34:14;3.83;;;3.33;;
679;SDS011;322;48.846;9.230;2022-09-03T06:36:43;2.63;;;2.43;;
679;SDS011;322;48.846;9.230;2022-09-03T06:39:10;3.20;;;2.63;;
679;SDS011;322;48.846;9.230;2022-09-03T06:41:37;3.30;;;2.60;;
679;SDS011;322;48.846;9.230;2022-09-03T06:44:04;3.27;;;2.97;;
679;SDS011;322;48.846;9.230;2022-09-03T06:46:36;3.17;;;2.83;;
679;SDS011;322;48.846;9.230;2022-09-03T06:49:07;2.33;;;2.13;;
679;SDS011;322;48.846;9.230;2022-09-03T06:51:35;4.70;;;2.53;;
679;SDS011;322;48.846;9.230;2022-09-03T06:54:04;3.30;;;3.00;;
679;SDS011;322;48.846;9.230;2022-09-03T06:56:32;5.77;;;3.10;;
679;SDS011;322;48.846;9.230;2022-09-03T06:59:05;4.70;;;2.80;;
679;SDS011;322;48.846;9.230;2022-09-03T07:01:32;2.77;;;2.57;;
679;SDS011;322;48.846;9.230;2022-09-03T07:04:01;4.00;;;2.80;;
679;SDS011;322;48.846;9.230;2022-09-03T07:06:31;2.83;;;2.60;;
679;SDS011;322;48.846;9.230;2022-09-03T07:09:01;2.77;;;2.53;;
679;SDS011;322;48.846;9.230;2022-09-03T07:11:28;4.50;;;3.10;;
679;SDS011;322;48.846;9.230;2022-09-03T07:13:57;4.23;;;3.90;;
679;SDS011;322;48.846;9.230;2022-09-03T07:16:26;3.03;;;2.83;;
679;SDS011;322;48.846;9.230;2022-09-03T07:18:53;4.03;;;3.00;;
679;SDS011;322;48.846;9.230;2022-09-03T07:21:22;4.00;;;3.07;;
679;SDS011;322;48.846;9.230;2022-09-03T07:23:52;3.73;;;2.90;;
679;SDS011;322;48.846;9.230;2022-09-03T07:26:21;5.00;;;2.67;;
679;SDS011;322;48.846;9.230;2022-09-03T07:28:49;3.90;;;3.10;;
679;SDS011;322;48.846;9.230;2022-09-03T07:31:19;6.03;;;2.97;;
679;SDS011;322;48.846;9.230;2022-09-03T07:33:50;3.80;;;2.77;;
679;SDS011;322;48.846;9.230;2022-09-03T07:36:20;6.50;;;3.23;;
679;SDS011;322;48.846;9.230;2022-09-03T07:38:48;3.03;;;2.40;;
679;SDS011;322;48.846;9.230;2022-09-03T07:41:16;2.90;;;2.70;;
679;SDS011;322;48.846;9.230;2022-09-03T07:43:43;2.97;;;2.77;;
679;SDS011;322;48.846;9.230;2022-09-03T07:46:12;3.70;;;3.20;;
679;SDS011;322;48.846;9.230;2022-09-03T07:48:45;3.07;;;2.80;;
679;SDS011;322;48.846;9.230;2022-09-03T07:51:14;3.43;;;2.93;;
679;SDS011;322;48.846;9.230;2022-09-03T07:53:42;3.30;;;2.80;;
679;SDS011;322;48.846;9.230;2022-09-03T07:56:09;3.50;;;2.90;;
679;SDS011;322;48.846;9.230;2022-09-03T07:58:38;9.70;;;3.43;;
679;SDS011;322;48.846;9.230;2022-09-03T08:01:07;4.97;;;3.00;;
679;SDS011;322;48.846;9.230;2022-09-03T08:03:35;3.57;;;3.10;;
679;SDS011;322;48.846;9.230;2022-09-03T08:06:03;4.40;;;3.53;;
679;SDS011;322;48.846;9.230;2022-09-03T08:08:31;5.63;;;3.50;;
679;SDS011;322;48.846;9.230;2022-09-03T08:11:03;4.10;;;3.70;;
679;SDS011;322;48.846;9.230;2022-09-03T08:13:35;4.53;;;4.13;;
679;SDS011;322;48.846;9.230;2022-09-03T08:16:04;6.07;;;3.40;;
679;SDS011;322;48.846;9.230;2022-09-03T08:18:32;4.20;;;3.83;;
679;SDS011;322;48.846;9.230;2022-09-03T08:21:02;3.33;;;3.07;;
679;SDS011;322;48.846;9.230;2022-09-03T08:23:31;3.70;;;3.40;;
679;SDS011;322;48.846;9.230;2022-09-03T08:25:58;4.40;;;4.00;;
679;SDS011;322;48.846;9.230;2022-09-03T08:28:26;3.80;;;3.40;;
679;SDS011;322;48.846;9.230;2022-09-03T08:30:54;3.90;;;3.40;;
679;SDS011;322;48.846;9.230;2022-09-03T08:33:22;4.47;;;4.07;;
679;SDS011;322;48.846;9.230;2022-09-03T08:36:02;4.83;;;3.87;;
679;SDS011;322;48.846;9.230;2022-09-03T08:38:30;4.90;;;3.60;;
679;SDS011;322;48.846;9.230;2022-09-03T08:41:05;3.90;;;3.40;;
679;SDS011;322;48.846;9.230;2022-09-03T08:43:37;3.77;;;3.10;;
679;SDS011;322;48.846;9.230;2022-09-03T08:46:18;3.80;;;3.50;;
679;SDS011;322;48.846;9.230;2022-09-03T08:48:51;6.83;;;4.13;;
679;SDS011;322;48.846;9.230;2022-09-03T08:51:19;4.50;;;4.10;;
679;SDS011;322;48.846;9.230;2022-09-03T08:53:52;3.90;;;3.60;;
679;SDS011;322;48.846;9.230;2022-09-03T08:56:23;3.83;;;3.50;;
679;SDS011;322;48.846;9.230;2022-09-03T08:58:53;4.57;;;3.37;;
679;SDS011;322;48.846;9.230;2022-09-03T09:01:25;4.23;;;3.67;;
679;SDS011;322;48.846;9.230;2022-09-03T09:04:02;5.63;;;3.57;;
679;SDS011;322;48.846;9.230;2022-09-03T09:06:38;4.50;;;4.00;;
679;SDS011;322;48.846;9.230;2022-09-03T09:09:14;4.60;;;3.43;;
679;SDS011;322;48.846;9.230;2022-09-03T09:11:54;5.47;;;4.97;;
679;SDS011;322;48.846;9.230;2022-09-03T09:14:29;5.43;;;4.93;;
679;SDS011;322;48.846;9.230;2022-09-03T09:17:03;7.67;;;4.70;;
679;SDS011;322;48.846;9.230;2022-09-03T09:19:45;4.00;;;3.70;;
679;SDS011;322;48.846;9.230;2022-09-03T09:22:26;4.40;;;4.00;;
679;SDS011;322;48.846;9.230;2022-09-03T09:24:57;5.47;;;4.97;;
679;SDS011;322;48.846;9.230;2022-09-03T09:27:28;4.83;;;4.37;;
679;SDS011;322;48.846;9.230;2022-09-03T09:29:55;5.53;;;5.03;;
679;SDS011;322;48.846;9.230;2022-09-03T09:32:28;5.40;;;4.90;;
679;SDS011;322;48.846;9.230;2022-09-03T09:34:56;5.00;;;4.33;;
679;SDS011;322;48.846;9.230;2022-09-03T09:37:23;4.80;;;4.40;;
679;SDS011;322;48.846;9.230;2022-09-03T09:39:53;6.23;;;4.80;;
679;SDS011;322;48.846;9.230;2022-09-03T09:42:22;5.17;;;4.73;;
679;SDS011;322;48.846;9.230;2022-09-03T09:44:49;5.27;;;4.87;;
679;SDS011;322;48.846;9.230;2022-09-03T09:47:20;5.80;;;4.70;;
679;SDS011;322;48.846;9.230;2022-09-03T09:49:56;5.80;;;4.20;;
679;SDS011;322;48.846;9.230;2022-09-03T09:52:24;4.80;;;4.30;;
679;SDS011;322;48.846;9.230;2022-09-03T09:55:04;4.07;;;3.73;;
679;SDS011;322;48.846;9.230;2022-09-03T09:57:33;7.33;;;4.97;;
679;SDS011;322;48.846;9.230;2022-09-03T10:00:05;4.97;;;4.53;;
679;SDS011;322;48.846;9.230;2022-09-03T10:02:34;4.53;;;4.10;;
679;SDS011;322;48.846;9.230;2022-09-03T10:05:12;4.33;;;3.93;;
679;SDS011;322;48.846;9.230;2022-09-03T10:07:41;4.20;;;3.90;;
679;SDS011;322;48.846;9.230;2022-09-03T10:10:13;4.07;;;3.77;;
679;SDS011;322;48.846;9.230;2022-09-03T10:12:44;5.83;;;4.30;;
679;SDS011;322;48.846;9.230;2022-09-03T10:15:19;4.70;;;4.37;;
679;SDS011;322;48.846;9.230;2022-09-03T10:17:59;4.47;;;4.07;;
679;SDS011;322;48.846;9.230;2022-09-03T10:20:33;4.47;;;4.03;;
679;SDS011;322;48.846;9.230;2022-09-03T10:23:12;4.40;;;3.60;;
679;SDS011;322;48.846;9.230;2022-09-03T10:25:49;3.97;;;3.67;;
679;SDS011;322;48.846;9.230;2022-09-03T10:28:25;4.80;;;4.07;;
679;SDS011;322;48.846;9.230;2022-09-03T10:31:02;3.70;;;3.40;;
679;SDS011;322;48.846;9.230;2022-09-03T10:33:54;4.87;;;4.30;;
679;SDS011;322;48.846;9.230;2022-09-03T10:36:27;5.13;;;3.67;;
679;SDS011;322;48.846;9.230;2022-09-03T10:39:01;4.10;;;3.40;;
679;SDS011;322;48.846;9.230;2022-09-03T10:41:34;10.73;;;4.13;;
679;SDS011;322;48.846;9.230;2022-09-03T10:44:15;9.07;;;4.43;;
679;SDS011;322;48.846;9.230;2022-09-03T10:46:54;4.43;;;3.87;;
679;SDS011;322;48.846;9.230;2022-09-03T10:49:35;3.83;;;3.53;;
679;SDS011;322;48.846;9.230;2022-09-03T10:52:15;3.60;;;3.33;;
679;SDS011;322;48.846;9.230;2022-09-03T10:54:50;3.87;;;3.57;;
679;SDS011;322;48.846;9.230;2022-09-03T10:57:28;3.83;;;3.50;;
679;SDS011;322;48.846;9.230;2022-09-03T11:00:04;4.30;;;4.00;;
679;SDS011;322;48.846;9.230;2022-09-03T11:02:42;3.97;;;3.60;;
679;SDS011;322;48.846;9.230;2022-09-03T11:05:20;2.80;;;2.60;;
679;SDS011;322;48.846;9.230;2022-09-03T11:07:51;21.90;;;5.10;;
679;SDS011;322;48.846;9.230;2022-09-03T11:10:24;4.60;;;3.37;;
679;SDS011;322;48.846;9.230;2022-09-03T11:12:54;4.10;;;3.70;;
679;SDS011;322;48.846;9.230;2022-09-03T11:15:30;3.93;;;3.60;;
679;SDS011;322;48.846;9.230;2022-09-03T11:18:02;4.70;;;3.53;;
679;SDS011;322;48.846;9.230;2022-09-03T11:20:37;3.40;;;3.10;;
679;SDS011;322;48.846;9.230;2022-09-03T11:23:07;4.00;;;3.60;;
679;SDS011;322;48.846;9.230;2022-09-03T11:25:40;3.93;;;3.00;;
679;SDS011;322;48.846;9.230;2022-09-03T11:28:11;5.97;;;3.40;;
679;SDS011;322;48.846;9.230;2022-09-03T11:30:52;9.57;;;4.20;;
679;SDS011;322;48.846;9.230;2022-09-03T11:33:38;4.00;;;3.70;;
679;SDS011;322;48.846;9.230;2022-09-03T11:36:09;5.27;;;3.90;;
679;SDS011;322;48.846;9.230;2022-09-03T11:38:39;3.73;;;3.43;;
679;SDS011;322;48.846;9.230;2022-09-03T11:41:10;4.87;;;3.80;;
679;SDS011;322;48.846;9.230;2022-09-03T11:43:40;4.23;;;3.93;;
679;SDS011;322;48.846;9.230;2022-09-03T11:46:08;6.13;;;3.77;;
679;SDS011;322;48.846;9.230;2022-09-03T11:48:40;4.13;;;3.73;;
679;SDS011;322;48.846;9.230;2022-09-03T11:51:19;4.97;;;4.47;;
679;SDS011;322;48.846;9.230;2022-09-03T11:53:57;4.33;;;3.93;;
679;SDS011;322;48.846;9.230;2022-09-03T11:56:26;6.13;;;4.40;;
679;SDS011;322;48.846;9.230;2022-09-03T11:59:01;4.50;;;4.10;;
679;SDS011;322;48.846;9.230;2022-09-03T12:01:31;4.10;;;3.80;;
679;SDS011;322;48.846;9.230;2022-09-03T12:04:00;5.37;;;3.83;;
679;SDS011;322;48.846;9.230;2022-09-03T12:06:46;4.73;;;4.33;;
679;SDS011;322;48.846;9.230;2022-09-03T12:09:36;4.40;;;4.00;;
679;SDS011;322;48.846;9.230;2022-09-03T12:12:22;4.53;;;4.13;;
679;SDS011;322;48.846;9.230;2022-09-03T12:15:00;4.63;;;4.23;;
679;SDS011;322;48.846;9.230;2022-09-03T12:17:34;10.10;;;4.33;;
679;SDS011;322;48.846;9.230;2022-09-03T12:20:10;7.30;;;4.17;;
679;SDS011;322;48.846;9.230;2022-09-03T12:22:39;5.97;;;4.77;;
679;SDS011;322;48.846;9.230;2022-09-03T12:25:08;7.00;;;4.23;;
679;SDS011;322;48.846;9.230;2022-09-03T12:27:37;5.63;;;4.37;;
679;SDS011;322;48.846;9.230;2022-09-03T12:30:04;4.67;;;3.83;;
679;SDS011;322;48.846;9.230;2022-09-03T12:32:39;5.50;;;4.00;;
679;SDS011;322;48.846;9.230;2022-09-03T12:35:11;4.60;;;4.20;;
679;SDS011;322;48.846;9.230;2022-09-03T12:37:40;11.67;;;6.10;;
679;SDS011;322;48.846;9.230;2022-09-03T12:40:18;4.93;;;4.47;;
679;SDS011;322;48.846;9.230;2022-09-03T12:42:47;4.90;;;4.47;;
679;SDS011;322;48.846;9.230;2022-09-03T12:45:14;5.60;;;5.20;;
679;SDS011;322;48.846;9.230;2022-09-03T12:47:45;5.73;;;5.23;;
679;SDS011;322;48.846;9.230;2022-09-03T12:50:13;5.63;;;4.93;;
679;SDS011;322;48.846;9.230;2022-09-03T12:52:42;4.90;;;4.47;;
679;SDS011;322;48.846;9.230;2022-09-03T12:55:26;4.37;;;3.97;;
679;SDS011;322;48.846;9.230;2022-09-03T12:57:59;7.30;;;4.80;;
679;SDS011;322;48.846;9.230;2022-09-03T13:00:31;6.40;;;4.80;;
679;SDS011;322;48.846;9.230;2022-09-03T13:03:02;4.10;;;3.80;;
679;SDS011;322;48.846;9.230;2022-09-03T13:05:32;7.00;;;3.70;;
679;SDS011;322;48.846;9.230;2022-09-03T13:08:02;6.80;;;3.77;;
679;SDS011;322;48.846;9.230;2022-09-03T13:10:34;4.90;;;4.40;;
679;SDS011;322;48.846;9.230;2022-09-03T13:13:06;4.87;;;4.47;;
679;SDS011;322;48.846;9.230;2022-09-03T13:15:54;6.10;;;4.03;;
679;SDS011;322;48.846;9.230;2022-09-03T13:18:28;4.23;;;3.60;;
679;SDS011;322;48.846;9.230;2022-09-03T13:21:07;4.60;;;4.20;;
679;SDS011;322;48.846;9.230;2022-09-03T13:23:41;6.20;;;5.50;;
679;SDS011;322;48.846;9.230;2022-09-03T13:26:23;7.90;;;5.00;;
679;SDS011;322;48.846;9.230;2022-09-03T13:29:00;5.23;;;4.73;;
679;SDS011;322;48.846;9.230;2022-09-03T13:31:41;9.23;;;5.67;;
679;SDS011;322;48.846;9.230;2022-09-03T13:34:14;4.90;;;4.40;;
679;SDS011;322;48.846;9.230;2022-09-03T13:36:48;5.40;;;3.97;;
679;SDS011;322;48.846;9.230;2022-09-03T13:39:23;5.43;;;4.17;;
679;SDS011;322;48.846;9.230;2022-09-03T13:41:56;3.80;;;3.40;;
679;SDS011;322;48.846;9.230;2022-09-03T13:44:34;4.00;;;3.63;;
679;SDS011;322;48.846;9.230;2022-09-03T13:47:08;4.53;;;3.70;;
679;SDS011;322;48.846;9.230;2022-09-03T13:49:46;6.90;;;3.27;;
679;SDS011;322;48.846;9.230;2022-09-03T13:52:38;2.73;;;2.50;;
679;SDS011;322;48.846;9.230;2022-09-03T13:55:10;4.00;;;2.50;;
679;SDS011;322;48.846;9.230;2022-09-03T13:57:45;3.03;;;2.40;;
679;SDS011;322;48.846;9.230;2022-09-03T14:00:21;3.50;;;2.60;;
679;SDS011;322;48.846;9.230;2022-09-03T14:02:52;2.53;;;2.30;;
679;SDS011;322;48.846;9.230;2022-09-03T14:05:30;2.50;;;2.30;;
679;SDS011;322;48.846;9.230;2022-09-03T14:08:11;3.63;;;2.67;;
679;SDS011;322;48.846;9.230;2022-09-03T14:10:54;2.67;;;2.13;;
679;SDS011;322;48.846;9.230;2022-09-03T14:13:38;2.50;;;2.00;;
679;SDS011;322;48.846;9.230;2022-09-03T14:16:16;3.80;;;2.33;;
679;SDS011;322;48.846;9.230;2022-09-03T14:18:50;4.50;;;1.97;;
679;SDS011;322;48.846;9.230;2022-09-03T14:21:23;2.63;;;2.00;;
679;SDS011;322;48.846;9.230;2022-09-03T14:23:58;4.07;;;2.50;;
679;SDS011;322;48.846;9.230;2022-09-03T14:26:31;4.77;;;2.07;;
679;SDS011;322;48.846;9.230;2022-09-03T14:29:01;3.73;;;1.90;;
679;SDS011;322;48.846;9.230;2022-09-03T14:31:35;3.47;;;2.20;;
679;SDS011;322;48.846;9.230;2022-09-03T14:34:26;3.23;;;2.47;;
679;SDS011;322;48.846;9.230;2022-09-03T14:37:04;2.77;;;2.37;;
679;SDS011;322;48.846;9.230;2022-09-03T14:39:37;3.23;;;2.20;;
679;SDS011;322;48.846;9.230;2022-09-03T14:42:30;5.70;;;3.00;;
679;SDS011;322;48.846;9.230;2022-09-03T14:51:08;2.80;;;2.50;;
679;SDS011;322;48.846;9.230;2022-09-03T14:53:50;2.90;;;2.23;;
679;SDS011;322;48.846;9.230;2022-09-03T14:56:49;3.20;;;2.90;;
679;SDS011;322;48.846;9.230;2022-09-03T15:02:29;3.03;;;2.53;;
679;SDS011;322;48.846;9.230;2022-09-03T15:05:13;2.50;;;2.30;;
679;SDS011;322;48.846;9.230;2022-09-03T15:07:47;2.93;;;2.63;;
679;SDS011;322;48.846;9.230;2022-09-03T15:10:20;2.60;;;1.73;;
679;SDS011;322;48.846;9.230;2022-09-03T15:12:54;3.30;;;2.70;;
679;SDS011;322;48.846;9.230;2022-09-03T15:15:26;3.77;;;2.93;;
679;SDS011;322;48.846;9.230;2022-09-03T15:18:07;3.87;;;2.47;;
679;SDS011;322;48.846;9.230;2022-09-03T15:20:46;4.30;;;2.30;;
679;SDS011;322;48.846;9.230;2022-09-03T15:23:18;4.97;;;2.60;;
679;SDS011;322;48.846;9.230;2022-09-03T15:28:55;2.50;;;2.00;;
679;SDS011;322;48.846;9.230;2022-09-03T15:31:40;5.03;;;2.10;;
679;SDS011;322;48.846;9.230;2022-09-03T15:34:23;3.20;;;2.10;;
679;SDS011;322;48.846;9.230;2022-09-03T15:37:07;4.20;;;2.50;;
679;SDS011;322;48.846;9.230;2022-09-03T15:39:39;3.77;;;2.80;;
679;SDS011;322;48.846;9.230;2022-09-03T15:42:09;5.13;;;2.50;;
679;SDS011;322;48.846;9.230;2022-09-03T15:44:44;2.93;;;2.23;;
679;SDS011;322;48.846;9.230;2022-09-03T15:50:15;2.47;;;2.00;;
679;SDS011;322;48.846;9.230;2022-09-03T15:52:54;2.40;;;2.00;;
679;SDS011;322;48.846;9.230;2022-09-03T15:55:30;2.23;;;1.90;;
679;SDS011;322;48.846;9.230;2022-09-03T15:58:02;2.77;;;1.87;;
679;SDS011;322;48.846;9.230;2022-09-03T16:00:40;1.77;;;1.60;;
679;SDS011;322;48.846;9.230;2022-09-03T16:03:18;2.33;;;1.87;;
679;SDS011;322;48.846;9.230;2022-09-03T16:05:59;2.07;;;1.57;;
679;SDS011;322;48.846;9.230;2022-09-03T16:08:32;2.60;;;1.53;;
679;SDS011;322;48.846;9.230;2022-09-03T16:11:05;2.20;;;1.57;;
679;SDS011;322;48.846;9.230;2022-09-03T16:13:48;2.60;;;2.40;;
679;SDS011;322;48.846;9.230;2022-09-03T16:16:25;6.77;;;2.70;;
679;SDS011;322;48.846;9.230;2022-09-03T16:18:59;7.53;;;3.10;;
679;SDS011;322;48.846;9.230;2022-09-03T16:21:34;2.83;;;2.20;;
679;SDS011;322;48.846;9.230;2022-09-03T16:24:04;4.13;;;2.53;;
679;SDS011;322;48.846;9.230;2022-09-03T16:26:39;3.00;;;2.03;;
679;SDS011;322;48.846;9.230;2022-09-03T16:29:15;2.67;;;2.27;;
679;SDS011;322;48.846;9.230;2022-09-03T16:31:47;3.27;;;1.70;;
679;SDS011;322;48.846;9.230;2022-09-03T16:34:26;1.97;;;1.73;;